Time;durP1;ratioP1;P1;durP2;ratioP2;P2;SDS_P1;SDS_P2;PMS_P1;PMS_P2;Temp;Humidity;BMP_temperature;BMP_pressure;BME280_temperature;BME280_humidity;BME280_pressure;Samples;Min_cycle;Max_cycle;Signal;HPM_P1;HPM_P2
2021/04/15 00:01:10;;;;;;;8.77;6.70;;;0.20;99.90;;;0.85;43.53;94805.34;5088581;28;20186;-68
2021/04/15 00:03:37;;;;;;;8.47;6.77;;;0.20;99.90;;;0.71;43.95;94796.53;5080282;28;20179;-68
2021/04/15 00:06:19;;;;;;;8.27;6.70;;;0.20;99.90;;;0.66;43.89;94805.91;5090478;28;20204;-69
2021/04/15 00:08:49;;;;;;;8.07;7.07;;;0.10;99.90;;;0.65;44.23;94799.88;5089724;28;20621;-68
2021/04/15 00:11:19;;;;;;;7.87;7.07;;;0.10;99.90;;;0.73;44.22;94797.19;5089539;28;20272;-68
2021/04/15 00:13:49;;;;;;;10.67;7.13;;;0.10;99.90;;;0.73;44.25;94794.59;5078824;28;20302;-68
2021/04/15 00:16:19;;;;;;;7.70;6.90;;;0.10;99.90;;;0.48;44.50;94794.06;5089603;28;20197;-67
2021/04/15 00:18:53;;;;;;;9.37;7.13;;;-0.10;99.90;;;0.37;44.41;94801.53;5089438;28;20250;-67
2021/04/15 00:21:22;;;;;;;11.17;6.93;;;0.30;99.90;;;0.31;44.60;94800.44;5088719;28;20708;-68
2021/04/15 00:23:48;;;;;;;7.63;6.93;;;-0.20;99.90;;;0.28;44.52;94792.16;5089139;28;20682;-69
2021/04/15 00:26:18;;;;;;;7.47;6.50;;;-0.20;99.90;;;0.23;44.45;94782.31;5071838;28;20197;-67
2021/04/15 00:28:50;;;;;;;14.33;7.90;;;-0.30;99.90;;;0.03;44.59;94791.63;5065174;28;20187;-67
2021/04/15 00:31:17;;;;;;;8.80;7.07;;;-0.40;99.90;;;-0.03;44.45;94780.09;5077175;28;20654;-67
2021/04/15 00:33:43;;;;;;;9.67;7.57;;;-0.50;99.90;;;-0.18;44.50;94781.91;5083881;28;20189;-67
2021/04/15 00:36:11;;;;;;;9.73;7.47;;;-0.50;99.90;;;-0.34;44.87;94782.06;5093199;28;20294;-69
2021/04/15 00:38:40;;;;;;;8.73;7.80;;;-0.60;99.90;;;-0.28;44.72;94781.34;5084480;28;20205;-68
2021/04/15 00:41:11;;;;;;;9.43;7.70;;;-0.90;99.90;;;-0.25;44.81;94786.19;5092636;28;20637;-69
2021/04/15 00:43:41;;;;;;;8.83;7.93;;;0.20;99.90;;;-0.32;45.02;94774.84;5067050;28;20535;-69
2021/04/15 00:46:44;;;;;;;11.47;8.00;;;-0.70;99.90;;;-0.26;44.83;94779.34;5093651;28;20159;-67
2021/04/15 00:49:16;;;;;;;9.27;7.37;;;-0.70;99.90;;;-0.22;44.96;94774.59;5091407;28;20515;-71
2021/04/15 00:51:49;;;;;;;9.10;7.90;;;0.40;99.90;;;-0.16;45.42;94769.50;5079804;28;20187;-68
2021/04/15 00:54:59;;;;;;;12.77;8.33;;;-0.70;99.90;;;-0.15;45.33;94776.34;5085484;28;20181;-67
2021/04/15 00:57:30;;;;;;;11.27;8.10;;;-0.70;99.90;;;-0.17;45.41;94772.28;5061924;28;20206;-68
2021/04/15 00:59:59;;;;;;;10.43;8.83;;;-0.80;99.90;;;-0.19;45.42;94769.84;5051413;28;20753;-68
2021/04/15 01:02:29;;;;;;;10.90;8.57;;;-0.70;99.90;;;-0.20;45.20;94763.00;5044501;28;20623;-68
2021/04/15 01:05:32;;;;;;;10.00;8.50;;;-0.80;99.90;;;-0.17;45.63;94774.91;5047215;28;20187;-67
2021/04/15 01:07:59;;;;;;;11.77;9.03;;;-0.80;99.90;;;-0.16;45.29;94753.88;5053521;28;20307;-67
2021/04/15 01:10:28;;;;;;;10.27;9.17;;;-0.70;99.90;;;-0.15;45.72;94758.09;5054220;28;20194;-66
2021/04/15 01:13:25;;;;;;;13.10;9.80;;;-0.70;99.90;;;-0.21;45.67;94755.41;5025972;28;20188;-69
2021/04/15 01:16:28;;;;;;;10.37;8.90;;;-0.80;99.90;;;-0.29;45.90;94760.66;5018634;28;20239;-69
2021/04/15 01:19:54;;;;;;;12.63;9.27;;;-0.80;99.90;;;-0.29;45.86;94760.66;5052160;28;20856;-68
2021/04/15 01:22:47;;;;;;;11.50;9.40;;;-0.80;99.90;;;-0.27;46.09;94762.09;5066043;28;20214;-68
2021/04/15 01:25:59;;;;;;;10.70;9.33;;;-0.90;99.90;;;-0.34;45.90;94771.63;5052578;28;20236;-68
2021/04/15 01:29:08;;;;;;;11.87;9.53;;;-0.90;99.90;;;-0.29;45.72;94764.09;5051630;28;20647;-67
2021/04/15 01:31:56;;;;;;;12.07;9.70;;;-0.90;99.90;;;-0.19;46.24;94769.03;4964228;28;20225;-68
2021/04/15 01:35:12;;;;;;;11.73;9.63;;;-0.80;99.90;;;-0.17;45.74;94764.47;4994038;28;20255;-68
2021/04/15 01:38:16;;;;;;;12.17;9.63;;;-0.80;99.90;;;-0.24;46.41;94764.38;4999550;28;20207;-68
2021/04/15 01:41:13;;;;;;;11.70;10.40;;;-0.80;99.90;;;-0.31;46.26;94767.88;4994428;28;20296;-69
2021/04/15 01:44:02;;;;;;;13.77;11.87;;;-0.90;99.90;;;-0.38;46.56;94774.75;4993085;28;20207;-68
2021/04/15 01:46:35;;;;;;;13.47;11.20;;;-1.00;99.90;;;-0.44;46.48;94765.88;5010363;28;20239;-67
2021/04/15 01:49:05;;;;;;;13.67;11.77;;;-1.00;99.90;;;-0.45;46.59;94766.84;4993169;28;20225;-68
2021/04/15 01:51:45;;;;;;;15.67;11.87;;;-1.00;99.90;;;-0.48;46.69;94759.38;4994868;28;20232;-66
2021/04/15 01:54:34;;;;;;;19.23;11.30;;;-1.00;99.90;;;-0.46;46.47;94752.19;5009551;28;20196;-68
2021/04/15 01:57:09;;;;;;;12.67;10.33;;;-1.00;99.90;;;-0.49;46.55;94752.56;4993020;28;20220;-67
2021/04/15 01:59:47;;;;;;;11.93;10.13;;;-1.00;99.90;;;-0.56;46.71;94754.22;4993657;28;20289;-67
2021/04/15 02:02:45;;;;;;;14.23;10.60;;;-1.10;99.90;;;-0.49;46.79;94755.16;5001628;28;20255;-67
2021/04/15 02:05:26;;;;;;;14.50;10.43;;;-1.10;99.90;;;-0.48;46.82;94748.16;4938873;28;20210;-67
2021/04/15 02:08:00;;;;;;;11.27;9.40;;;-1.10;99.90;;;-0.54;46.87;94749.69;4991024;28;20197;-67
2021/04/15 02:10:31;;;;;;;12.30;10.70;;;-1.00;99.90;;;-0.62;46.89;94750.56;4989167;28;20208;-67
2021/04/15 02:13:02;;;;;;;12.13;10.20;;;-1.10;99.90;;;-0.69;47.35;94749.63;5005183;28;20259;-67
2021/04/15 02:15:33;;;;;;;11.37;10.00;;;-1.20;99.90;;;-0.73;47.36;94757.94;5035053;28;20197;-68
2021/04/15 02:18:06;;;;;;;15.07;10.07;;;-1.20;99.90;;;-0.65;47.14;94752.69;5030534;28;20872;-67
2021/04/15 02:20:32;;;;;;;11.73;9.77;;;-1.20;99.90;;;-0.75;47.33;94744.31;5013358;28;20192;-67
2021/04/15 02:23:17;;;;;;;11.27;9.87;;;-1.20;99.90;;;-0.69;47.31;94751.41;5028344;28;20193;-66
2021/04/15 02:25:58;;;;;;;10.60;9.23;;;-1.20;99.90;;;-0.70;47.31;94748.00;5027111;28;20199;-70
2021/04/15 02:28:47;;;;;;;11.73;9.30;;;-1.20;99.90;;;-0.92;47.20;94746.22;5017185;28;20791;-66
2021/04/15 02:31:21;;;;;;;10.57;9.10;;;-1.40;99.90;;;-0.97;47.38;94752.94;4996930;28;20185;-67
2021/04/15 02:34:10;;;;;;;12.10;9.70;;;-1.40;99.90;;;-1.04;47.73;94763.19;4997022;28;20169;-66
2021/04/15 02:36:51;;;;;;;13.37;8.97;;;-1.50;99.90;;;-1.06;47.22;94752.16;5013675;28;20193;-66
2021/04/15 02:39:24;;;;;;;10.93;9.13;;;-1.50;99.90;;;-1.15;47.81;94755.81;5026913;28;20171;-66
2021/04/15 02:41:56;;;;;;;11.30;9.10;;;-1.60;99.90;;;-1.18;47.77;94749.19;5074311;28;20696;-68
2021/04/15 02:44:46;;;;;;;11.53;8.43;;;-1.60;99.90;;;-1.26;47.69;94748.41;5059390;28;20931;-67
2021/04/15 02:47:38;;;;;;;11.33;8.93;;;-1.70;99.90;;;-1.20;47.46;94756.31;5090599;28;20695;-67
2021/04/15 02:50:08;;;;;;;12.77;9.67;;;-1.70;99.90;;;-1.18;48.03;94750.97;5053493;28;20199;-67
2021/04/15 02:52:39;;;;;;;11.60;10.07;;;-1.70;99.90;;;-1.12;48.00;94751.09;5079650;28;20178;-68
2021/04/15 02:55:18;;;;;;;13.53;10.47;;;-1.60;99.90;;;-1.10;48.05;94749.09;5078357;28;20208;-67
2021/04/15 02:57:55;;;;;;;12.97;9.97;;;-1.60;99.90;;;-1.12;48.13;94748.47;5081677;28;20175;-68
2021/04/15 03:00:36;;;;;;;15.30;10.77;;;-1.60;99.90;;;-1.12;48.06;94751.09;5083655;28;20188;-67
2021/04/15 03:03:13;;;;;;;14.60;12.13;;;-1.70;99.90;;;-1.22;47.77;94742.69;5072078;28;20216;-67
2021/04/15 03:05:57;;;;;;;15.40;11.47;;;-1.00;99.90;;;-1.17;48.06;94745.56;5082751;28;20174;-69
2021/04/15 03:08:28;;;;;;;14.00;11.20;;;-1.70;99.90;;;-1.15;48.26;94745.41;5074287;28;20205;-68
2021/04/15 03:11:00;;;;;;;13.30;10.93;;;-1.70;99.90;;;-1.15;48.27;94753.22;5079063;28;20206;-67
2021/04/15 03:13:36;;;;;;;18.43;13.27;;;-1.70;99.90;;;-1.10;48.06;94743.09;5088325;28;20179;-67
2021/04/15 03:16:06;;;;;;;16.03;13.10;;;-1.60;99.90;;;-1.08;48.40;94741.16;5087614;28;20227;-68
2021/04/15 03:19:01;;;;;;;16.90;13.63;;;-1.70;99.90;;;-1.04;48.50;94745.00;5069507;28;20288;-68
2021/04/15 03:21:43;;;;;;;16.67;13.57;;;-1.60;99.90;;;-0.78;48.39;94742.88;5084825;28;20178;-69
2021/04/15 03:24:41;;;;;;;17.67;12.83;;;-1.50;99.90;;;-0.66;48.45;94744.06;5073019;28;20614;-67
2021/04/15 03:27:27;;;;;;;16.23;13.20;;;-1.40;99.90;;;-0.62;48.80;94737.53;5065591;28;20213;-69
2021/04/15 03:30:15;;;;;;;15.90;13.03;;;-1.30;99.90;;;-0.58;48.82;94733.59;5089731;28;20599;-67
2021/04/15 03:33:24;;;;;;;18.00;13.70;;;-1.30;99.90;;;-0.52;48.90;94742.50;5073294;28;20196;-69
2021/04/15 03:35:58;;;;;;;18.10;13.43;;;-1.20;99.90;;;-0.48;49.11;94733.34;5061590;28;20226;-70
2021/04/15 03:38:32;;;;;;;19.93;14.13;;;-1.10;99.90;;;-0.46;49.22;94740.97;5035478;28;20195;-68
2021/04/15 03:41:13;;;;;;;18.07;13.10;;;-1.20;99.90;;;-0.44;49.02;94729.41;5042541;28;20191;-68
2021/04/15 03:43:48;;;;;;;16.40;13.27;;;-1.00;99.90;;;-0.44;49.22;94734.63;5032385;28;20229;-68
2021/04/15 03:46:44;;;;;;;17.10;13.70;;;;;;;-0.39;49.36;94736.69;5015439;28;20168;-68
2021/04/15 03:49:23;;;;;;;20.60;13.73;;;-1.00;99.90;;;-0.35;49.30;94733.56;4972423;28;20195;-68
2021/04/15 03:51:57;;;;;;;19.97;13.90;;;-1.10;99.90;;;-0.37;49.39;94735.50;4955963;28;20184;-68
2021/04/15 03:54:36;;;;;;;16.80;13.57;;;0.70;99.90;;;-0.38;49.38;94728.72;4971361;28;20205;-68
2021/04/15 03:57:07;;;;;;;18.03;14.47;;;-1.00;99.90;;;-0.38;49.41;94720.91;4988297;28;20189;-69
2021/04/15 03:59:46;;;;;;;19.57;14.67;;;-1.00;99.90;;;-0.45;49.40;94737.38;4973606;28;20201;-67
2021/04/15 04:02:41;;;;;;;16.50;13.13;;;-1.00;99.90;;;-0.55;49.74;94742.84;4981805;28;20696;-68
2021/04/15 04:05:36;;;;;;;15.80;12.83;;;-1.10;99.90;;;-0.63;49.57;94733.31;4969857;28;20187;-68
2021/04/15 04:08:08;;;;;;;17.43;13.00;;;-1.10;99.90;;;-0.70;49.67;94728.97;4973083;28;20213;-67
2021/04/15 04:10:45;;;;;;;18.90;13.30;;;-1.20;99.90;;;-0.85;49.78;94730.72;4976639;28;20250;-71
2021/04/15 04:13:38;;;;;;;16.47;13.23;;;-1.30;99.90;;;-0.84;50.09;94737.56;4982912;28;20201;-68
2021/04/15 04:16:15;;;;;;;17.13;13.33;;;-1.30;99.90;;;-0.87;49.73;94732.72;5006516;28;20794;-68
2021/04/15 04:18:54;;;;;;;16.20;12.67;;;-2.20;99.90;;;-0.95;50.13;94727.56;5012933;28;20209;-68
2021/04/15 04:21:33;;;;;;;17.00;12.70;;;-1.40;99.90;;;-1.08;50.27;94741.97;4992592;28;20185;-68
2021/04/15 04:24:44;;;;;;;17.57;13.47;;;-1.60;99.90;;;-1.13;49.96;94752.06;4997277;28;20231;-69
2021/04/15 04:27:35;;;;;;;18.87;13.97;;;-1.60;99.90;;;-1.12;50.01;94751.09;5073728;28;21228;-67
2021/04/15 04:30:29;;;;;;;16.93;12.57;;;-1.60;99.90;;;-1.15;50.22;94745.41;5077490;28;20183;-67
2021/04/15 04:33:01;;;;;;;16.37;13.37;;;-1.70;99.90;;;-1.30;50.36;94749.72;5088686;28;20197;-67
2021/04/15 04:35:33;;;;;;;17.43;12.83;;;-1.80;99.90;;;-1.42;50.26;94756.28;5065613;28;20267;-68
2021/04/15 04:38:07;;;;;;;16.40;13.07;;;-1.80;99.90;;;-1.48;50.25;94752.59;5082354;28;20184;-68
2021/04/15 04:40:40;;;;;;;16.60;12.63;;;-1.90;99.90;;;-1.51;50.35;94760.69;5076788;28;20195;-67
2021/04/15 04:43:19;;;;;;;16.67;12.80;;;-2.00;99.90;;;-1.59;50.67;94756.38;5058080;28;20550;-67
2021/04/15 04:45:46;;;;;;;18.27;12.87;;;-2.10;99.90;;;-1.54;50.54;94760.25;5073643;28;20212;-69
2021/04/15 04:48:37;;;;;;;22.13;14.40;;;-2.00;99.90;;;-1.46;50.39;94763.63;5072011;28;20736;-68
2021/04/15 04:51:18;;;;;;;16.97;12.47;;;-1.50;99.90;;;-1.39;50.31;94776.75;5065769;28;20205;-69
2021/04/15 04:53:48;;;;;;;15.70;12.87;;;-1.80;99.90;;;-1.36;50.29;94763.41;5075390;28;20193;-69
2021/04/15 04:56:20;;;;;;;16.30;12.33;;;-1.90;99.90;;;-1.28;50.50;94771.97;5089437;28;20181;-69
2021/04/15 04:59:10;;;;;;;18.03;13.17;;;-1.80;99.90;;;-1.27;50.21;94763.19;5094118;28;20242;-68
2021/04/15 05:01:36;;;;;;;15.27;12.43;;;-1.80;99.90;;;-1.07;50.80;94774.75;5075372;28;20190;-68
2021/04/15 05:04:04;;;;;;;16.77;13.13;;;-0.80;99.90;;;-1.07;50.61;94766.97;5057165;28;22426;-69
2021/04/15 05:06:33;;;;;;;21.33;13.47;;;-1.60;99.90;;;-0.87;51.06;94779.53;5083396;28;20236;-69
2021/04/15 05:09:13;;;;;;;15.33;12.83;;;-1.50;99.90;;;-0.81;50.94;94768.44;5072715;28;20264;-67
2021/04/15 05:11:45;;;;;;;18.87;12.13;;;-1.30;99.90;;;-0.62;51.09;94779.19;5092181;28;20682;-68
2021/04/15 05:14:15;;;;;;;19.83;12.83;;;-1.20;99.90;;;-0.56;50.55;94768.06;5076162;28;20176;-68
2021/04/15 05:16:51;;;;;;;17.87;12.13;;;-1.10;99.90;;;-0.49;51.24;94768.16;5109917;28;20167;-67
2021/04/15 05:19:20;;;;;;;17.30;12.50;;;-1.10;99.90;;;-0.49;51.41;94770.78;5091992;28;20186;-69
2021/04/15 05:21:51;;;;;;;15.73;12.07;;;-1.00;99.90;;;-0.36;51.31;94783.19;5109402;28;20171;-68
2021/04/15 05:24:32;;;;;;;14.90;11.60;;;-0.90;99.90;;;-0.33;50.98;94772.41;5092049;28;20242;-67
2021/04/15 05:27:02;;;;;;;12.90;11.13;;;-0.90;99.90;;;-0.27;51.22;94775.13;5082688;28;20221;-68
2021/04/15 05:29:33;;;;;;;13.23;10.90;;;-0.80;99.90;;;-0.23;51.18;94779.00;5089330;28;20677;-68
2021/04/15 05:32:00;;;;;;;14.40;11.33;;;-0.80;99.90;;;-0.11;51.33;94782.00;5080887;28;20179;-69
2021/04/15 05:34:29;;;;;;;15.77;12.80;;;-0.70;99.90;;;-0.24;51.19;94776.59;5088545;28;20184;-71
2021/04/15 05:37:06;;;;;;;16.17;13.07;;;-0.70;99.90;;;-0.05;51.52;94791.69;5070705;28;20190;-71
2021/04/15 05:39:32;;;;;;;14.27;11.93;;;-0.60;99.90;;;0.05;51.98;94787.03;5069314;28;20191;-72
2021/04/15 05:42:39;;;;;;;16.63;12.90;;;0.20;99.90;;;0.20;51.47;94784.47;5072667;28;20186;-71
2021/04/15 05:45:07;;;;;;;19.37;12.53;;;-0.30;99.90;;;0.21;51.63;94776.44;4991050;28;20246;-74
2021/04/15 05:47:55;;;;;;;13.87;11.87;;;-0.20;99.90;;;0.38;51.79;94783.09;5029829;28;20236;-72
2021/04/15 05:50:46;;;;;;;20.03;11.50;;;-0.10;99.90;;;0.55;52.07;94783.72;5025313;28;22156;-72
2021/04/15 05:53:25;;;;;;;15.13;11.47;;;0.00;99.90;;;0.71;52.09;94780.91;5012188;28;20192;-71
2021/04/15 05:56:00;;;;;;;15.73;12.20;;;1.00;99.90;;;0.76;52.00;94782.97;4992998;28;20212;-70
2021/04/15 05:58:39;;;;;;;16.83;12.27;;;0.30;99.90;;;0.86;52.44;94784.31;5010555;28;20280;-71
2021/04/15 06:01:23;;;;;;;16.00;11.37;;;0.40;99.90;;;1.03;52.52;94790.94;5009344;28;20185;-73
2021/04/15 06:04:13;;;;;;;13.80;11.73;;;0.60;99.90;;;1.31;52.30;94800.66;5001416;28;20184;-71
2021/04/15 06:06:40;;;;;;;14.33;12.23;;;0.70;99.90;;;1.72;52.67;94791.19;5020642;28;20325;-72
2021/04/15 06:09:10;;;;;;;16.80;10.70;;;1.80;99.90;;;1.96;52.50;94801.22;5002707;28;20840;-72
2021/04/15 06:11:46;;;;;;;15.13;10.70;;;1.40;99.90;;;2.37;53.00;94800.50;5028482;28;20193;-70
2021/04/15 06:14:34;;;;;;;11.50;10.30;;;1.70;99.90;;;3.66;52.74;94828.44;5010134;28;20566;-68
2021/04/15 06:17:35;;;;;;;12.53;9.93;;;2.80;99.90;;;5.28;52.82;94823.16;5017743;28;20271;-69
2021/04/15 06:20:25;;;;;;;9.80;8.70;;;4.40;99.90;;;6.98;52.58;94834.28;5017440;28;20188;-69
2021/04/15 06:22:57;;;;;;;9.40;8.00;;;6.30;99.90;;;7.99;53.01;94800.09;5069024;28;20719;-68
2021/04/15 06:25:29;;;;;;;9.27;8.37;;;7.60;99.90;;;8.62;53.48;94773.91;5083170;28;20210;-69
2021/04/15 06:28:03;;;;;;;9.57;8.50;;;8.60;99.90;;;8.10;53.29;94778.22;5086429;28;20674;-66
2021/04/15 06:31:04;;;;;;;13.43;9.13;;;8.60;99.90;;;6.90;53.05;94758.16;5080051;28;20270;-67
2021/04/15 06:33:30;;;;;;;9.47;8.47;;;7.90;99.90;;;6.31;53.12;94760.59;5082928;28;20258;-67
2021/04/15 06:36:02;;;;;;;9.63;8.70;;;7.20;99.90;;;5.87;53.05;94772.91;5071652;28;20206;-67
2021/04/15 06:38:47;;;;;;;9.73;8.73;;;6.70;99.90;;;5.49;52.62;94793.97;5088195;28;20187;-70
2021/04/15 06:42:00;;;;;;;10.40;9.40;;;6.40;99.90;;;5.46;52.83;94799.63;5064878;28;20187;-68
2021/04/15 06:44:50;;;;;;;10.10;9.07;;;6.10;99.90;;;5.87;52.76;94811.56;5073087;28;20194;-69
2021/04/15 06:47:39;;;;;;;11.17;9.30;;;5.90;99.90;;;5.67;52.75;94785.38;5100526;28;20232;-71
2021/04/15 06:52:48;;;;;;;10.63;9.03;;;5.70;99.90;;;5.84;52.72;94789.06;5102885;27;20599;-69
2021/04/15 06:55:34;;;;;;;11.10;9.70;;;6.00;99.90;;;5.62;52.78;94790.44;5075586;28;20212;-68
2021/04/15 06:58:05;;;;;;;12.30;9.77;;;5.70;99.90;;;5.77;52.82;94790.97;5083682;28;20266;-71
2021/04/15 07:00:55;;;;;;;12.53;9.83;;;5.80;99.90;;;6.16;52.98;94817.00;5081865;28;20183;-70
2021/04/15 07:04:16;;;;;;;11.17;9.57;;;6.00;99.90;;;6.07;53.30;94802.50;5075175;28;20920;-68
2021/04/15 07:07:13;;;;;;;11.87;9.20;;;5.90;99.90;;;6.18;53.02;94774.66;5007121;28;20198;-69
2021/04/15 07:10:12;;;;;;;12.30;11.10;;;6.40;99.90;;;5.91;52.71;94808.28;5001958;28;20441;-71
2021/04/15 07:13:17;;;;;;;14.17;10.43;;;6.00;99.90;;;6.35;52.58;94783.63;5016173;28;20652;-71
2021/04/15 07:16:17;;;;;;;11.70;10.07;;;6.20;99.90;;;6.37;52.51;94776.34;5008593;28;20204;-70
2021/04/15 07:18:48;;;;;;;11.63;9.33;;;6.30;99.90;;;6.40;52.41;94798.78;5010670;28;20185;-70
2021/04/15 07:22:04;;;;;;;14.03;8.83;;;6.20;99.90;;;6.70;53.09;94791.81;5014035;28;20193;-69
2021/04/15 07:24:50;;;;;;;9.30;8.40;;;6.40;99.90;;;7.32;52.87;94803.09;4994827;28;20296;-72
2021/04/15 07:27:36;;;;;;;9.43;8.53;;;6.90;99.90;;;7.67;53.07;94810.09;5019403;28;20591;-70
2021/04/15 07:30:27;;;;;;;11.20;8.63;;;7.20;99.90;;;9.61;53.26;94852.16;5006867;28;20823;-71
2021/04/15 07:33:28;;;;;;;8.83;8.00;;;8.70;99.90;;;10.57;52.93;94789.50;5001761;28;20174;-69
2021/04/15 07:36:15;;;;;;;10.40;8.37;;;10.40;99.90;;;9.29;52.81;94792.78;5015310;28;20230;-70
2021/04/15 07:39:31;;;;;;;8.70;7.90;;;9.50;99.90;;;8.28;53.10;94761.50;5002728;28;20892;-68
2021/04/15 07:42:20;;;;;;;9.63;8.73;;;8.80;99.90;;;7.75;52.92;94785.25;5034125;28;20443;-71
2021/04/15 07:45:07;;;;;;;8.80;7.90;;;8.20;99.90;;;7.41;52.21;94773.53;5085960;28;20216;-69
2021/04/15 07:47:48;;;;;;;9.53;8.53;;;7.60;99.90;;;6.76;52.55;94795.38;5059426;28;20807;-69
2021/04/15 07:50:33;;;;;;;11.38;10.18;;;6.80;99.90;;;5.99;52.34;94801.94;5063176;28;20921;-67
2021/04/15 07:53:36;;;;;;;10.37;8.60;;;6.30;99.90;;;6.01;52.28;94789.41;5080698;28;20180;-68
2021/04/15 07:56:40;;;;;;;9.90;8.90;;;5.90;99.90;;;5.82;52.29;94806.91;5021864;28;20437;-71
2021/04/15 07:59:53;;;;;;;9.77;8.87;;;5.70;99.90;;;6.34;52.25;94799.66;5007860;28;20189;-69
2021/04/15 08:03:17;;;;;;;9.27;8.30;;;6.00;99.90;;;6.87;53.10;94810.47;5019184;28;20190;-73
2021/04/15 08:06:25;;;;;;;8.60;7.80;;;6.40;99.90;;;6.92;52.59;94797.44;4972378;28;20206;-69
2021/04/15 08:09:39;;;;;;;8.70;7.80;;;6.50;99.90;;;8.11;53.04;94840.53;4952459;29;20250;-69
2021/04/15 08:12:33;;;;;;;8.93;8.03;;;7.40;99.90;;;10.88;53.01;94823.38;4968490;28;20212;-69
2021/04/15 08:15:20;;;;;;;8.77;7.97;;;9.80;99.90;;;11.07;52.73;94789.44;4967579;28;20497;-70
2021/04/15 08:18:39;;;;;;;8.73;7.93;;;10.90;99.90;;;9.44;52.66;94729.56;4952327;28;20273;-70
2021/04/15 08:21:46;;;;;;;9.00;8.13;;;10.20;99.90;;;8.26;52.66;94797.84;4951143;29;20194;-70
2021/04/15 08:24:46;;;;;;;9.68;8.77;;;8.50;99.90;;;8.13;52.00;94806.78;4931481;29;20483;-69
2021/04/15 08:27:40;;;;;;;8.93;8.13;;;8.50;99.90;;;8.46;52.52;94792.28;4944883;29;20283;-67
2021/04/15 08:30:22;;;;;;;10.33;8.37;;;8.60;99.90;;;10.49;52.34;94903.88;4931664;28;20834;-70
2021/04/15 08:33:12;;;;;;;9.50;7.57;;;9.60;99.90;;;13.09;52.56;94807.38;4934600;28;20199;-70
2021/04/15 08:36:35;;;;;;;12.67;7.37;;;12.40;99.40;;;11.22;52.52;94729.38;4984307;28;20289;-71
2021/04/15 08:39:32;;;;;;;9.50;8.13;;;12.20;96.30;;;10.18;52.43;94805.31;4958834;28;20277;-75
2021/04/15 08:42:20;;;;;;;7.97;7.17;;;10.70;99.10;;;11.17;52.24;94853.25;4964696;28;20188;-72
2021/04/15 08:45:33;;;;;;;8.87;7.67;;;10.70;99.80;;;13.05;52.11;94808.94;4951314;28;20195;-75
2021/04/15 08:48:36;;;;;;;7.97;7.18;;;12.80;96.00;;;12.28;52.68;94762.38;4937648;28;20448;-74
2021/04/15 08:51:44;;;;;;;7.40;6.53;;;13.00;93.60;;;10.63;52.13;94773.44;4952247;28;20227;-72
2021/04/15 08:54:42;;;;;;;8.30;7.50;;;11.50;94.20;;;9.81;52.18;94793.50;4937624;28;20183;-72
2021/04/15 08:57:24;;;;;;;7.93;7.10;;;10.50;95.50;;;8.96;51.64;94780.22;4945983;28;20196;-78
2021/04/15 09:00:35;;;;;;;7.90;7.20;;;9.60;96.10;;;8.64;51.33;94808.03;4976758;28;20818;-73
2021/04/15 09:03:26;;;;;;;8.20;7.40;;;9.00;97.80;;;8.71;51.36;94798.94;5009697;28;20230;-73
2021/04/15 09:06:40;;;;;;;7.10;6.40;;;8.70;98.30;;;9.26;51.90;94844.31;5007823;28;20393;-72
2021/04/15 09:09:35;;;;;;;7.40;6.70;;;8.80;97.50;;;13.44;51.80;94866.16;4949293;28;20205;-74
2021/04/15 09:12:22;;;;;;;7.17;6.57;;;12.20;94.50;;;16.48;51.98;94878.44;4964873;28;20371;-75
2021/04/15 09:15:12;;;;;;;6.90;6.30;;;15.30;84.20;;;20.01;51.86;94905.56;4965843;28;20201;-72
2021/04/15 09:17:53;;;;;;;5.93;5.43;;;20.00;70.50;;;21.96;51.68;94851.97;4989836;28;20281;-71
2021/04/15 09:20:32;;;;;;;6.50;6.00;;;22.40;61.20;;;19.62;51.79;94595.88;5013321;28;20635;-71
2021/04/15 09:23:20;;;;;;;6.40;5.90;;;22.10;53.50;;;18.73;51.14;94862.25;4982927;28;20179;-69
2021/04/15 09:26:19;;;;;;;6.67;6.03;;;20.20;56.20;;;16.72;50.93;94758.13;4975485;28;20215;-74
2021/04/15 09:29:14;;;;;;;6.50;5.93;;;18.90;59.50;;;17.82;50.74;94814.34;4987573;28;20451;-74
2021/04/15 09:31:57;;;;;;;6.73;6.13;;;19.30;58.80;;;17.77;50.43;94825.91;4978842;28;20244;-70
2021/04/15 09:34:53;;;;;;;6.80;6.17;;;18.90;61.20;;;19.59;50.37;94806.25;4971897;28;20188;-69
2021/04/15 09:38:10;;;;;;;6.10;5.70;;;20.30;58.20;;;18.90;50.71;94797.25;5027098;28;20264;-73
2021/04/15 09:41:13;;;;;;;6.73;5.77;;;20.50;57.40;;;19.39;49.82;94805.53;5082566;28;20248;-73
2021/04/15 09:43:44;;;;;;;5.77;5.27;;;20.40;56.30;;;20.08;49.65;94775.94;5045763;28;20216;-71
2021/04/15 09:46:58;;;;;;;6.30;5.80;;;21.00;55.20;;;21.57;49.64;94858.13;5050934;28;20524;-73
2021/04/15 09:49:41;;;;;;;6.10;5.63;;;22.10;54.70;;;23.25;48.95;94879.25;4988273;28;20221;-71
2021/04/15 09:52:47;;;;;;;6.43;5.27;;;24.20;50.50;;;21.10;49.10;94673.56;4988016;28;20212;-74
2021/04/15 09:55:42;;;;;;;6.53;6.03;;;23.70;48.40;;;16.34;48.61;94727.63;4987720;28;20246;-72
2021/04/15 09:58:42;;;;;;;6.40;5.80;;;19.20;52.60;;;17.53;48.64;94870.66;4988129;28;20243;-72
2021/04/15 10:01:19;;;;;;;5.90;5.40;;;18.50;57.50;;;19.47;48.06;94881.25;5001372;28;20291;-73
2021/04/15 10:03:59;;;;;;;6.63;6.03;;;20.30;54.90;;;21.67;47.86;94841.69;4982803;28;20186;-74
2021/04/15 10:06:36;;;;;;;5.87;5.37;;;22.50;50.80;;;21.16;48.06;94855.66;4987910;28;20209;-72
2021/04/15 10:09:04;;;;;;;6.13;5.53;;;22.50;50.80;;;19.12;47.93;94730.22;4972234;28;20181;-74
2021/04/15 10:11:51;;;;;;;5.77;5.30;;;21.30;50.80;;;16.73;47.74;94633.88;4988500;28;20671;-70
2021/04/15 10:14:35;;;;;;;6.18;5.60;;;19.10;53.50;;;16.81;47.19;94844.78;4984045;28;20440;-68
2021/04/15 10:17:29;;;;;;;5.50;5.00;;;18.30;57.10;;;15.87;47.05;94771.00;4972692;28;20188;-70
2021/04/15 10:20:33;;;;;;;5.60;5.07;;;17.40;55.30;;;16.23;47.00;94792.97;4984700;28;20295;-68
2021/04/15 10:23:43;;;;;;;5.53;5.10;;;17.00;56.90;;;18.80;46.80;94800.88;4971968;28;20602;-67
2021/04/15 10:26:26;;;;;;;5.20;4.80;;;19.00;56.90;;;19.15;46.63;94694.69;5021485;28;20213;-69
2021/04/15 10:29:16;;;;;;;5.10;4.70;;;20.00;52.50;;;20.34;46.61;94845.13;5044816;28;20182;-67
2021/04/15 10:31:51;;;;;;;4.67;4.27;;;20.90;52.10;;;23.17;46.19;94818.63;5041183;28;20206;-69
2021/04/15 10:35:20;;;;;;;4.57;4.20;;;24.20;47.80;;;23.84;46.24;94756.50;5039025;28;20632;-69
2021/04/15 10:38:43;;;;;;;4.93;4.47;;;25.40;44.20;;;23.79;46.23;94742.34;4970871;28;20194;-69
2021/04/15 10:41:36;;;;;;;4.70;4.40;;;25.70;44.20;;;25.47;45.35;94844.00;4928822;29;20616;-69
2021/04/15 10:44:35;;;;;;;5.13;4.63;;;26.60;46.80;;;23.60;45.33;94663.47;4930604;29;20538;-72
2021/04/15 10:47:19;;;;;;;4.53;4.20;;;26.30;41.50;;;24.98;45.22;94697.31;4918105;29;20191;-72
2021/04/15 10:50:28;;;;;;;4.77;4.37;;;27.10;41.50;;;23.34;44.95;94742.03;4930066;29;20698;-75
2021/04/15 10:53:49;;;;;;;4.60;4.20;;;25.60;41.90;;;24.23;44.56;94787.88;4929047;29;20196;-78
2021/04/15 10:56:27;;;;;;;4.93;4.53;;;25.50;43.50;;;24.73;44.42;94781.59;4930335;29;20204;-74
2021/04/15 10:59:01;;;;;;;5.77;4.40;;;26.30;41.10;;;24.29;43.83;94728.84;4930269;29;20363;-71
2021/04/15 11:01:34;;;;;;;4.80;4.40;;;26.00;43.10;;;23.94;43.70;94631.53;4929522;29;20211;-73
2021/04/15 11:04:25;;;;;;;4.67;4.27;;;26.10;41.70;;;24.74;43.25;94815.75;4913675;29;20267;-72
2021/04/15 11:07:15;;;;;;;5.73;4.30;;;26.30;43.40;;;25.51;43.16;94698.34;4924909;29;20180;-69
2021/04/15 11:09:45;;;;;;;3.97;3.67;;;27.40;41.20;;;23.75;42.82;94573.56;4927195;29;20191;-67
2021/04/15 11:12:13;;;;;;;4.60;4.10;;;25.90;40.10;;;22.01;42.58;94741.16;4966500;28;20221;-67
2021/04/15 11:14:46;;;;;;;5.43;4.50;;;23.90;43.50;;;21.96;42.66;94725.88;5022231;28;20184;-68
2021/04/15 11:17:46;;;;;;;4.73;4.33;;;23.50;44.60;;;22.93;42.43;94645.28;5066159;28;20184;-76
2021/04/15 11:20:35;;;;;;;5.40;4.90;;;24.40;43.70;;;22.57;41.97;94736.72;5047127;28;20639;-69
2021/04/15 11:23:08;;;;;;;5.30;4.67;;;24.20;43.90;;;24.11;41.83;94814.06;5050837;28;20176;-71
2021/04/15 11:25:47;;;;;;;5.03;4.63;;;25.20;45.60;;;24.50;41.45;94797.41;5074714;28;20180;-69
2021/04/15 11:28:24;;;;;;;5.23;4.83;;;25.80;43.00;;;23.03;41.62;94596.25;5046930;28;20253;-69
2021/04/15 11:30:52;;;;;;;5.27;4.77;;;25.70;43.00;;;20.65;41.48;94621.63;5048611;28;20200;-69
2021/04/15 11:33:48;;;;;;;5.90;5.40;;;23.00;45.20;;;18.02;41.23;94674.59;5066698;28;20186;-69
2021/04/15 11:36:23;;;;;;;5.73;5.17;;;20.30;50.10;;;15.99;41.03;94636.97;5046624;28;20211;-70